Time;durP1;ratioP1;P1;durP2;ratioP2;P2;SDS_P1;SDS_P2;PMS_P1;PMS_P2;Temp;Humidity;BMP_temperature;BMP_pressure;BME280_temperature;BME280_humidity;BME280_pressure;Samples;Min_cycle;Max_cycle;Signal;HPM_P1;HPM_P2
2023/03/30 00:01:20;;;;;;;4.78;0.30;;;14.60;69.70;;;;;;4966840;28;92877;-71
2023/03/30 00:03:46;;;;;;;4.57;0.20;;;14.70;70.80;;;;;;4967878;28;93248;-72
2023/03/30 00:06:20;;;;;;;6.32;0.20;;;14.70;70.20;;;;;;4970785;28;93579;-71
2023/03/30 00:08:46;;;;;;;4.65;0.20;;;14.70;68.80;;;;;;4975655;28;93753;-72
2023/03/30 00:11:17;;;;;;;11.07;0.55;;;14.80;70.30;;;;;;4968606;28;92580;-72
2023/03/30 00:13:43;;;;;;;6.00;0.35;;;14.80;68.50;;;;;;4970832;28;94371;-71
2023/03/30 00:16:11;;;;;;;7.03;0.30;;;14.80;69.40;;;;;;4970015;28;93097;-71
2023/03/30 00:18:38;;;;;;;7.05;0.22;;;14.70;69.40;;;;;;4971025;28;92564;-71
2023/03/30 00:21:06;;;;;;;7.13;0.70;;;14.70;69.80;;;;;;4979183;28;92494;-72
2023/03/30 00:23:32;;;;;;;6.75;0.30;;;14.80;69.30;;;;;;4970176;28;91783;-71
2023/03/30 00:25:58;;;;;;;8.32;0.52;;;14.70;69.10;;;;;;4970024;28;92548;-71
2023/03/30 00:28:25;;;;;;;5.60;0.20;;;14.80;68.60;;;;;;4969348;28;92974;-72
2023/03/30 00:30:52;;;;;;;11.45;0.40;;;14.80;68.20;;;;;;4978195;28;93412;-70
2023/03/30 00:33:18;;;;;;;9.82;0.30;;;14.90;68.30;;;;;;4973097;28;93488;-71
2023/03/30 00:35:54;;;;;;;6.22;0.20;;;15.00;67.60;;;;;;4971941;28;92680;-72
2023/03/30 00:38:20;;;;;;;6.25;0.40;;;15.00;67.80;;;;;;4969812;28;92880;-71
2023/03/30 00:40:55;;;;;;;7.40;0.30;;;15.00;67.80;;;;;;4971993;28;92509;-70
2023/03/30 00:43:21;;;;;;;5.35;0.28;;;15.00;67.10;;;;;;4970090;28;92959;-72
2023/03/30 00:45:47;;;;;;;4.25;0.20;;;15.10;67.20;;;;;;4970860;28;93141;-72
2023/03/30 00:48:17;;;;;;;6.10;0.52;;;15.10;66.80;;;;;;4969110;28;92395;-69
2023/03/30 00:50:47;;;;;;;8.93;0.63;;;15.10;67.30;;;;;;4970368;28;92646;-72
2023/03/30 00:53:17;;;;;;;4.30;0.28;;;15.10;66.80;;;;;;4970408;28;92594;-72
2023/03/30 00:55:45;;;;;;;7.32;0.28;;;15.20;66.20;;;;;;4977127;28;95459;-74
2023/03/30 00:58:12;;;;;;;6.68;0.10;;;15.30;66.30;;;;;;4970080;28;93231;-73
2023/03/30 01:00:39;;;;;;;10.07;0.28;;;15.30;66.40;;;;;;4978168;28;92563;-72
2023/03/30 01:03:27;;;;;;;11.18;0.47;;;15.30;67.10;;;;;;4973877;28;92338;-71
2023/03/30 01:05:55;;;;;;;4.93;0.45;;;15.30;66.80;;;;;;4971132;28;93401;-71
2023/03/30 01:08:22;;;;;;;7.38;0.40;;;15.30;66.70;;;;;;4967730;28;93156;-71
2023/03/30 01:10:51;;;;;;;4.05;0.32;;;15.30;66.40;;;;;;4966496;28;92496;-73
2023/03/30 01:13:18;;;;;;;4.72;0.40;;;15.30;65.80;;;;;;4964555;28;91878;-73
2023/03/30 01:16:14;;;;;;;5.63;0.28;;;15.30;65.90;;;;;;4969099;28;93250;-70
2023/03/30 01:19:07;;;;;;;5.20;0.40;;;15.40;65.30;;;;;;4962764;28;96534;-70
2023/03/30 01:22:11;;;;;;;7.13;0.50;;;15.40;65.70;;;;;;4972517;28;94762;-70
2023/03/30 01:25:14;;;;;;;6.43;0.20;;;15.40;66.00;;;;;;4976990;28;93596;-72
2023/03/30 01:27:45;;;;;;;;;;;15.40;66.10;;;;;;4972886;28;93154;-71
2023/03/30 01:30:17;;;;;;;5.20;0.32;;;15.30;65.50;;;;;;4974544;28;92446;-71
2023/03/30 01:33:21;;;;;;;5.47;0.20;;;15.30;65.20;;;;;;4974897;28;92447;-72
2023/03/30 01:36:02;;;;;;;8.35;0.30;;;15.30;66.30;;;;;;4971253;28;92374;-74
2023/03/30 01:39:05;;;;;;;6.05;0.20;;;15.30;65.70;;;;;;4973206;28;96200;-71
2023/03/30 01:41:40;;;;;;;6.10;0.35;;;15.30;65.50;;;;;;4971731;28;92241;-71
2023/03/30 01:44:27;;;;;;;4.93;0.35;;;15.30;65.00;;;;;;4974537;28;92830;-72
2023/03/30 01:47:11;;;;;;;3.92;0.20;;;15.40;65.20;;;;;;4973360;28;92703;-70
2023/03/30 01:49:49;;;;;;;7.07;0.25;;;15.30;65.10;;;;;;4970290;28;95903;-74
2023/03/30 01:52:27;;;;;;;5.82;0.43;;;15.30;66.00;;;;;;4974537;28;93409;-71
2023/03/30 01:55:27;;;;;;;4.50;0.30;;;15.30;65.60;;;;;;4976881;28;93664;-72
2023/03/30 01:58:11;;;;;;;6.35;0.35;;;15.20;65.90;;;;;;4978848;28;92632;-69
2023/03/30 02:00:39;;;;;;;9.30;0.40;;;15.20;65.50;;;;;;4975283;28;93173;-70
2023/03/30 02:03:44;;;;;;;4.57;0.82;;;15.20;66.30;;;;;;4969753;28;93394;-70
2023/03/30 02:06:27;;;;;;;7.85;0.43;;;15.20;65.30;;;;;;4971042;28;93362;-70
2023/03/30 02:08:58;;;;;;;6.60;0.22;;;15.20;65.30;;;;;;4970044;28;91835;-73
2023/03/30 02:11:25;;;;;;;5.38;0.20;;;15.20;65.70;;;;;;4976339;28;93908;-73
2023/03/30 02:13:54;;;;;;;7.63;0.43;;;15.20;65.10;;;;;;4970463;28;93106;-72
2023/03/30 02:16:29;;;;;;;5.40;0.30;;;15.20;65.00;;;;;;4977201;28;93575;-73
2023/03/30 02:18:56;;;;;;;7.97;0.80;;;15.20;65.70;;;;;;4966657;28;92522;-71
2023/03/30 02:21:22;;;;;;;5.15;0.30;;;15.30;64.60;;;;;;4971037;28;93234;-70
2023/03/30 02:23:53;;;;;;;9.02;0.40;;;15.30;64.60;;;;;;4970286;28;94448;-70
2023/03/30 02:26:18;;;;;;;4.65;0.30;;;15.30;64.40;;;;;;4977298;28;94330;-72
2023/03/30 02:28:45;;;;;;;4.95;0.25;;;15.30;64.30;;;;;;4972213;28;92554;-72
2023/03/30 02:31:14;;;;;;;4.47;0.22;;;15.40;64.80;;;;;;4979307;28;93050;-71
2023/03/30 02:33:58;;;;;;;7.50;0.25;;;15.40;64.60;;;;;;4971055;28;92369;-70
2023/03/30 02:36:27;;;;;;;4.45;0.30;;;15.50;64.30;;;;;;4976139;28;92052;-70
2023/03/30 02:39:09;;;;;;;5.13;0.30;;;15.50;64.40;;;;;;4971974;28;93393;-74
2023/03/30 02:41:55;;;;;;;5.82;0.20;;;15.50;63.50;;;;;;4972765;28;94676;-71
2023/03/30 02:44:40;;;;;;;6.50;0.70;;;15.60;63.00;;;;;;4964650;28;93803;-70
2023/03/30 02:47:27;;;;;;;8.55;0.60;;;15.60;63.80;;;;;;4968454;28;92340;-72
2023/03/30 02:50:21;;;;;;;9.50;0.68;;;15.60;63.90;;;;;;4974153;28;92431;-71
2023/03/30 02:52:49;;;;;;;7.57;0.25;;;15.70;63.00;;;;;;4974469;28;93018;-70
2023/03/30 02:55:33;;;;;;;7.53;0.30;;;15.60;63.60;;;;;;4969033;28;92624;-72
2023/03/30 02:58:02;;;;;;;4.97;0.50;;;15.60;63.80;;;;;;4970291;28;94311;-71
2023/03/30 03:00:40;;;;;;;7.13;0.30;;;15.60;63.60;;;;;;4969774;28;92176;-72
2023/03/30 03:03:22;;;;;;;5.57;0.25;;;15.60;64.00;;;;;;4965779;28;93632;-69
2023/03/30 03:05:53;;;;;;;3.88;0.20;;;15.60;63.50;;;;;;4973678;28;93042;-69
2023/03/30 03:08:23;;;;;;;8.30;0.47;;;15.60;63.60;;;;;;4971140;28;93886;-70
2023/03/30 03:10:50;;;;;;;10.23;0.73;;;15.60;63.50;;;;;;4970817;28;92151;-72
2023/03/30 03:13:17;;;;;;;11.25;0.80;;;15.60;66.60;;;;;;4968865;28;94063;-72
2023/03/30 03:15:45;;;;;;;7.25;0.50;;;15.30;68.50;;;;;;4968718;28;92508;-70
2023/03/30 03:18:12;;;;;;;13.20;0.82;;;15.10;68.50;;;;;;4967828;28;92603;-71
2023/03/30 03:20:38;;;;;;;10.10;0.93;;;14.90;69.40;;;;;;4974361;28;93196;-70
2023/03/30 03:23:04;;;;;;;10.38;0.88;;;14.90;70.30;;;;;;4969005;28;93703;-74
2023/03/30 03:25:30;;;;;;;10.43;0.43;;;14.90;71.00;;;;;;4968084;28;93660;-73
2023/03/30 03:27:57;;;;;;;6.47;0.60;;;14.60;72.40;;;;;;4971117;28;92516;-74
2023/03/30 03:30:23;;;;;;;9.57;0.28;;;14.50;73.70;;;;;;4968965;28;92776;-71
2023/03/30 03:32:49;;;;;;;6.18;0.30;;;14.40;72.70;;;;;;4966487;28;94304;-72
2023/03/30 03:35:16;;;;;;;4.97;0.28;;;14.40;74.30;;;;;;4975403;28;93799;-72
2023/03/30 03:37:41;;;;;;;5.25;0.30;;;14.40;74.00;;;;;;4969536;28;92183;-72
2023/03/30 03:40:10;;;;;;;8.90;0.30;;;14.20;75.40;;;;;;4972790;28;92576;-73
2023/03/30 03:42:36;;;;;;;10.05;0.85;;;14.00;77.20;;;;;;4970333;28;93139;-72
2023/03/30 03:45:02;;;;;;;7.47;0.65;;;13.70;78.70;;;;;;4974266;28;92349;-72
2023/03/30 03:47:28;;;;;;;6.10;0.40;;;13.50;78.40;;;;;;4970501;28;92501;-72
2023/03/30 03:49:53;;;;;;;6.63;0.17;;;13.30;79.60;;;;;;4973437;28;91827;-71
2023/03/30 03:52:19;;;;;;;7.28;0.57;;;13.30;79.80;;;;;;4968381;28;93289;-71
2023/03/30 03:54:45;;;;;;;8.05;0.20;;;13.20;79.50;;;;;;4969874;28;92785;-72
2023/03/30 03:57:10;;;;;;;9.63;0.20;;;13.10;80.40;;;;;;4963572;28;93584;-72
2023/03/30 03:59:36;;;;;;;7.70;0.30;;;13.10;79.50;;;;;;4975747;28;92345;-73
2023/03/30 04:02:02;;;;;;;10.02;0.60;;;13.10;79.30;;;;;;4975418;28;93187;-71
2023/03/30 04:04:27;;;;;;;7.57;0.30;;;13.20;79.50;;;;;;4962300;28;93541;-73
2023/03/30 04:06:53;;;;;;;5.40;0.20;;;13.20;77.50;;;;;;4966505;28;92674;-72
2023/03/30 04:09:20;;;;;;;6.15;0.40;;;13.20;77.90;;;;;;4973141;28;93972;-70
2023/03/30 04:11:46;;;;;;;6.35;0.35;;;13.20;77.60;;;;;;4971823;28;93627;-70
2023/03/30 04:14:11;;;;;;;6.88;0.30;;;13.30;78.20;;;;;;4972891;28;92912;-73
2023/03/30 04:16:37;;;;;;;6.13;0.40;;;13.30;77.70;;;;;;4984428;28;92361;-72
2023/03/30 04:19:02;;;;;;;6.03;0.30;;;13.40;77.00;;;;;;4980674;28;92297;-72
2023/03/30 04:21:28;;;;;;;6.95;0.35;;;13.50;76.50;;;;;;4962108;28;94683;-70
2023/03/30 04:23:54;;;;;;;3.30;0.20;;;13.60;75.70;;;;;;4972283;28;93810;-72
2023/03/30 04:26:20;;;;;;;5.70;0.40;;;13.60;77.70;;;;;;4977825;28;93289;-72
2023/03/30 04:28:46;;;;;;;8.48;0.40;;;13.60;76.90;;;;;;4989181;28;92621;-71
2023/03/30 04:31:12;;;;;;;7.32;0.55;;;13.70;76.20;;;;;;4974205;28;93190;-72
2023/03/30 04:33:44;;;;;;;5.80;0.30;;;13.70;76.00;;;;;;4967260;28;94412;-74
2023/03/30 04:36:16;;;;;;;8.10;0.30;;;13.80;75.80;;;;;;4967806;28;92543;-70
2023/03/30 04:38:57;;;;;;;7.00;0.50;;;13.80;75.80;;;;;;4962783;28;91636;-70
2023/03/30 04:41:32;;;;;;;7.68;0.40;;;13.90;75.10;;;;;;4958904;28;94414;-72
2023/03/30 04:44:04;;;;;;;4.75;0.22;;;14.00;74.30;;;;;;4954796;28;93132;-71
2023/03/30 04:46:30;;;;;;;3.22;0.20;;;14.10;73.70;;;;;;4958150;28;95146;-72
2023/03/30 04:48:56;;;;;;;3.97;0.20;;;14.20;73.20;;;;;;4962880;28;93196;-71
2023/03/30 04:51:23;;;;;;;5.63;0.35;;;14.40;72.50;;;;;;4957703;28;93289;-73
2023/03/30 04:53:48;;;;;;;11.13;0.35;;;14.50;72.50;;;;;;4967744;28;94128;-72
2023/03/30 04:56:14;;;;;;;4.43;0.20;;;14.50;71.30;;;;;;4968950;28;92328;-71
2023/03/30 04:58:40;;;;;;;5.00;0.82;;;14.70;70.80;;;;;;4962735;28;93648;-75
2023/03/30 05:01:06;;;;;;;5.03;0.28;;;14.80;70.40;;;;;;4957908;28;93621;-72
2023/03/30 05:03:31;;;;;;;5.00;0.30;;;14.80;70.90;;;;;;4962955;28;93348;-71
2023/03/30 05:05:57;;;;;;;5.78;0.30;;;14.80;71.10;;;;;;4965720;28;92224;-71
2023/03/30 05:08:23;;;;;;;7.65;0.20;;;14.80;70.40;;;;;;4959879;28;92395;-71
2023/03/30 05:10:49;;;;;;;5.18;0.40;;;14.80;71.00;;;;;;4957190;28;94272;-73
2023/03/30 05:13:15;;;;;;;3.63;0.28;;;14.70;70.90;;;;;;4966988;28;93659;-70
2023/03/30 05:15:40;;;;;;;5.10;0.20;;;14.80;71.30;;;;;;4965001;28;92370;-70
2023/03/30 05:18:06;;;;;;;4.85;0.30;;;14.80;70.50;;;;;;4962070;28;93546;-70
2023/03/30 05:20:32;;;;;;;8.45;0.55;;;14.80;70.70;;;;;;4960123;28;92719;-72
2023/03/30 05:22:58;;;;;;;7.35;0.30;;;14.80;69.70;;;;;;4969138;28;93511;-74
2023/03/30 05:25:24;;;;;;;6.40;0.45;;;14.90;70.30;;;;;;4970156;28;92369;-71
2023/03/30 05:27:50;;;;;;;5.07;0.20;;;14.90;70.10;;;;;;4967551;28;91737;-72
2023/03/30 05:30:15;;;;;;;7.38;0.43;;;15.00;69.50;;;;;;4976145;28;93402;-71
2023/03/30 05:32:41;;;;;;;4.15;0.47;;;15.00;70.00;;;;;;4974894;28;92842;-72
2023/03/30 05:35:07;;;;;;;6.72;1.65;;;15.20;68.60;;;;;;4964671;28;93341;-72
2023/03/30 05:37:33;;;;;;;3.75;0.20;;;15.20;68.90;;;;;;4990514;28;93141;-70
2023/03/30 05:39:59;;;;;;;4.63;0.22;;;15.30;68.90;;;;;;4997226;28;93031;-72
2023/03/30 05:42:25;;;;;;;11.90;0.30;;;15.30;68.90;;;;;;4986565;28;92780;-70
2023/03/30 05:44:51;;;;;;;4.03;0.55;;;15.40;67.60;;;;;;4987138;28;92358;-71
2023/03/30 05:47:16;;;;;;;7.85;0.30;;;15.40;68.00;;;;;;4979933;28;93346;-71
2023/03/30 05:49:42;;;;;;;4.47;0.22;;;15.50;67.50;;;;;;4974732;28;92755;-71
2023/03/30 05:52:08;;;;;;;6.75;0.43;;;15.50;66.80;;;;;;4978112;28;92216;-70
2023/03/30 05:54:34;;;;;;;3.50;0.20;;;15.70;65.60;;;;;;4994800;28;92486;-70
2023/03/30 05:57:00;;;;;;;2.17;0.22;;;15.80;66.00;;;;;;4979594;28;92390;-71
2023/03/30 05:59:25;;;;;;;4.50;0.22;;;15.90;65.00;;;;;;4993965;28;94119;-72
2023/03/30 06:01:51;;;;;;;6.93;0.30;;;16.10;63.70;;;;;;4995163;28;94091;-71
2023/03/30 06:04:17;;;;;;;5.38;0.40;;;16.20;64.60;;;;;;4970817;28;92656;-72
2023/03/30 06:06:43;;;;;;;3.67;0.20;;;16.20;64.50;;;;;;4978634;28;92421;-71
2023/03/30 06:09:09;;;;;;;5.47;0.47;;;16.20;64.10;;;;;;4991625;28;92614;-72
2023/03/30 06:11:35;;;;;;;3.45;0.20;;;16.20;64.40;;;;;;4981855;28;93113;-73
2023/03/30 06:14:00;;;;;;;5.97;0.95;;;16.20;63.70;;;;;;4976488;28;92753;-70
2023/03/30 06:16:27;;;;;;;6.47;0.22;;;16.30;64.00;;;;;;4980942;28;91819;-71
2023/03/30 06:18:53;;;;;;;2.65;0.10;;;16.30;64.50;;;;;;4974859;28;93090;-72
2023/03/30 06:21:19;;;;;;;7.80;0.25;;;16.30;64.00;;;;;;4976429;28;92765;-71
2023/03/30 06:23:45;;;;;;;3.75;0.20;;;16.30;63.50;;;;;;4970112;28;93240;-71
2023/03/30 06:26:11;;;;;;;5.45;0.30;;;16.30;64.30;;;;;;4978175;28;92547;-72
2023/03/30 06:28:37;;;;;;;7.80;0.50;;;16.40;63.10;;;;;;4993803;28;92607;-71
2023/03/30 06:31:07;;;;;;;6.90;0.30;;;16.40;63.50;;;;;;4973459;28;92662;-72
2023/03/30 06:33:33;;;;;;;6.95;0.43;;;16.40;63.80;;;;;;4968689;28;92197;-69
2023/03/30 06:35:59;;;;;;;4.07;0.40;;;16.40;63.30;;;;;;4978208;28;92575;-72
2023/03/30 06:38:25;;;;;;;4.57;0.47;;;16.40;64.00;;;;;;4987306;28;93065;-70
2023/03/30 06:40:51;;;;;;;6.18;0.30;;;16.40;63.10;;;;;;4975342;28;93065;-72
2023/03/30 06:43:22;;;;;;;7.10;0.63;;;16.40;63.10;;;;;;4980689;28;92416;-72
2023/03/30 06:45:50;;;;;;;5.28;0.30;;;16.30;62.80;;;;;;4981364;28;92542;-72
2023/03/30 06:48:15;;;;;;;6.55;0.30;;;16.40;63.10;;;;;;4974662;28;94192;-71
2023/03/30 06:50:43;;;;;;;9.50;0.30;;;16.50;62.70;;;;;;4976405;28;93250;-70
2023/03/30 06:53:09;;;;;;;5.80;0.30;;;16.50;62.50;;;;;;4968085;28;93803;-71
2023/03/30 06:55:35;;;;;;;4.90;0.43;;;16.50;62.80;;;;;;4968598;28;92521;-71
2023/03/30 06:58:00;;;;;;;4.72;0.22;;;16.50;62.20;;;;;;4995821;28;93294;-71
2023/03/30 07:00:26;;;;;;;5.10;0.43;;;16.60;61.70;;;;;;4987731;28;92769;-71
2023/03/30 07:02:53;;;;;;;4.65;0.40;;;16.70;61.40;;;;;;4976646;28;92995;-70
2023/03/30 07:05:23;;;;;;;9.27;0.50;;;16.80;61.00;;;;;;4977292;28;91577;-72
2023/03/30 07:07:49;;;;;;;14.45;0.95;;;17.00;61.50;;;;;;4975545;28;92781;-73
2023/03/30 07:10:15;;;;;;;9.73;0.90;;;17.00;64.70;;;;;;4976194;28;92619;-71
2023/03/30 07:12:42;;;;;;;9.10;1.35;;;16.80;63.70;;;;;;4968525;28;95106;-70
2023/03/30 07:15:08;;;;;;;13.93;0.95;;;16.80;65.80;;;;;;4974331;28;92396;-70
2023/03/30 07:17:34;;;;;;;10.40;0.95;;;16.80;64.60;;;;;;4975728;28;93254;-70
2023/03/30 07:20:00;;;;;;;14.82;1.15;;;16.70;66.50;;;;;;4976058;28;92804;-71
2023/03/30 07:22:26;;;;;;;8.50;1.40;;;16.50;66.10;;;;;;4975472;28;92089;-70
2023/03/30 07:24:53;;;;;;;11.30;1.05;;;16.40;65.90;;;;;;4978433;28;93625;-71
2023/03/30 07:27:18;;;;;;;8.23;0.50;;;16.40;66.20;;;;;;4966497;28;93076;-71
2023/03/30 07:29:44;;;;;;;6.80;0.30;;;16.40;64.20;;;;;;4968931;28;92794;-71
2023/03/30 07:32:10;;;;;;;8.30;0.73;;;16.40;64.60;;;;;;4975214;28;92593;-71
2023/03/30 07:34:35;;;;;;;7.85;0.30;;;16.40;64.20;;;;;;4971413;28;92784;-72
2023/03/30 07:37:01;;;;;;;8.18;0.75;;;16.30;63.60;;;;;;4975190;28;94292;-70
2023/03/30 07:39:27;;;;;;;5.72;0.43;;;16.30;63.80;;;;;;4990547;28;92989;-71
2023/03/30 07:41:53;;;;;;;5.78;0.40;;;16.40;63.50;;;;;;4974677;28;92341;-70
2023/03/30 07:44:19;;;;;;;7.47;0.63;;;16.40;63.20;;;;;;4976158;28;92214;-71
2023/03/30 07:46:45;;;;;;;6.72;0.60;;;16.40;66.70;;;;;;4976144;28;93443;-71
2023/03/30 07:49:11;;;;;;;11.68;1.02;;;16.20;68.00;;;;;;4974391;28;92577;-71
2023/03/30 07:51:38;;;;;;;12.52;1.70;;;16.00;68.00;;;;;;4973722;28;92359;-70
2023/03/30 07:54:04;;;;;;;6.13;0.55;;;16.00;68.70;;;;;;4982457;28;92130;-70
2023/03/30 07:56:32;;;;;;;9.63;0.93;;;16.00;70.80;;;;;;4969479;28;93168;-71
2023/03/30 07:58:57;;;;;;;6.38;0.68;;;15.90;70.80;;;;;;4982338;28;93033;-70
2023/03/30 08:01:24;;;;;;;8.70;1.45;;;15.80;70.60;;;;;;4973471;28;93468;-71
2023/03/30 08:03:49;;;;;;;10.05;0.90;;;15.80;68.30;;;;;;4972912;28;92465;-70
2023/03/30 08:06:15;;;;;;;10.45;0.98;;;15.80;70.60;;;;;;4973719;28;92732;-71
2023/03/30 08:08:42;;;;;;;12.68;0.60;;;15.60;71.80;;;;;;4974005;28;93047;-70
2023/03/30 08:11:09;;;;;;;8.52;0.95;;;15.30;73.20;;;;;;4971839;28;92486;-70
2023/03/30 08:13:36;;;;;;;7.00;0.45;;;15.20;74.20;;;;;;4970843;28;92482;-71
2023/03/30 08:16:02;;;;;;;13.05;1.13;;;15.10;74.60;;;;;;4975268;28;93070;-72
2023/03/30 08:18:28;;;;;;;10.85;1.13;;;15.00;74.60;;;;;;4969322;28;92940;-70
2023/03/30 08:20:54;;;;;;;10.85;1.10;;;14.90;74.90;;;;;;4973273;28;92472;-72
2023/03/30 08:23:20;;;;;;;8.60;0.82;;;14.90;74.70;;;;;;4959886;28;93369;-71
2023/03/30 08:25:51;;;;;;;10.68;0.98;;;14.80;75.00;;;;;;4970729;28;94166;-72
2023/03/30 08:28:20;;;;;;;12.25;2.05;;;14.80;75.10;;;;;;4972313;28;93362;-71
2023/03/30 08:30:46;;;;;;;8.50;0.82;;;14.90;75.20;;;;;;4977701;28;92580;-71
2023/03/30 08:33:12;;;;;;;13.23;1.75;;;14.80;75.60;;;;;;4981473;28;92311;-71
2023/03/30 08:35:38;;;;;;;23.70;5.13;;;14.70;75.90;;;;;;4977615;28;93127;-71
2023/03/30 08:38:03;;;;;;;12.52;2.10;;;14.60;76.70;;;;;;4975605;28;93459;-71
2023/03/30 08:40:29;;;;;;;21.02;2.55;;;14.60;76.10;;;;;;4972161;28;92365;-70
2023/03/30 08:43:02;;;;;;;19.50;2.40;;;14.70;76.20;;;;;;4974567;28;91872;-70
2023/03/30 08:45:37;;;;;;;19.40;2.22;;;14.70;76.10;;;;;;4973881;28;93149;-72
2023/03/30 08:48:15;;;;;;;11.98;1.52;;;14.80;76.20;;;;;;4928256;28;1241554;-72
2023/03/30 08:50:46;;;;;;;8.88;1.00;;;14.80;73.30;;;;;;4993275;28;93385;-71
2023/03/30 08:53:12;;;;;;;9.15;0.50;;;14.90;72.80;;;;;;4982118;28;93991;-72
2023/03/30 08:55:47;;;;;;;6.80;0.85;;;15.00;72.30;;;;;;4968446;28;92498;-71
2023/03/30 08:58:18;;;;;;;9.05;0.90;;;15.10;71.90;;;;;;4991753;28;92973;-72
2023/03/30 09:00:55;;;;;;;10.90;0.60;;;15.20;71.30;;;;;;4995338;28;92708;-69
2023/03/30 09:03:30;;;;;;;9.55;0.95;;;15.30;70.90;;;;;;4978958;28;92502;-70
2023/03/30 09:06:24;;;;;;;6.25;0.80;;;15.40;70.20;;;;;;4989310;28;92656;-71
2023/03/30 09:08:51;;;;;;;11.65;0.73;;;15.50;72.00;;;;;;4987223;28;93120;-71
2023/03/30 09:11:28;;;;;;;9.45;0.60;;;15.50;72.40;;;;;;4983840;28;92370;-70
2023/03/30 09:13:55;;;;;;;7.50;0.60;;;15.50;72.00;;;;;;4973574;28;93913;-71
2023/03/30 09:16:36;;;;;;;9.73;0.47;;;15.60;71.30;;;;;;4970529;28;95042;-73
2023/03/30 09:19:05;;;;;;;6.68;0.40;;;15.50;71.10;;;;;;4968086;28;93205;-70
2023/03/30 09:21:31;;;;;;;6.78;0.70;;;15.60;71.00;;;;;;4974381;28;92107;-70
2023/03/30 09:23:59;;;;;;;6.85;0.50;;;15.50;71.90;;;;;;4977296;28;92877;-69
2023/03/30 09:26:43;;;;;;;8.02;0.60;;;15.50;72.10;;;;;;4971964;28;93160;-70
2023/03/30 09:29:25;;;;;;;6.38;0.65;;;15.40;71.80;;;;;;4982062;28;93021;-70
2023/03/30 09:32:00;;;;;;;8.85;1.20;;;15.30;71.80;;;;;;4986791;28;93215;-70
2023/03/30 09:34:35;;;;;;;9.57;0.80;;;15.30;72.60;;;;;;4989011;28;91314;-72
2023/03/30 09:37:30;;;;;;;8.57;0.80;;;15.40;72.70;;;;;;4979345;28;92783;-71
2023/03/30 09:39:57;;;;;;;6.47;0.50;;;15.50;72.20;;;;;;4965155;28;92805;-71
2023/03/30 09:42:57;;;;;;;10.27;1.00;;;15.60;70.60;;;;;;4978041;28;93399;-72
2023/03/30 09:45:29;;;;;;;7.07;0.50;;;15.70;70.10;;;;;;4976033;28;92628;-71
2023/03/30 09:47:55;;;;;;;6.88;0.50;;;15.80;69.80;;;;;;4977147;28;93116;-71
2023/03/30 09:50:21;;;;;;;5.50;0.30;;;15.90;70.10;;;;;;4990236;28;92668;-71
2023/03/30 09:52:59;;;;;;;18.30;1.15;;;16.00;69.80;;;;;;4987345;28;92344;-69
2023/03/30 09:55:29;;;;;;;10.63;0.90;;;16.10;70.00;;;;;;4977964;28;92539;-72
2023/03/30 09:58:10;;;;;;;8.48;0.60;;;16.20;70.10;;;;;;4970198;28;92727;-73
2023/03/30 10:00:36;;;;;;;6.43;0.68;;;16.20;69.90;;;;;;4975957;28;92490;-74
2023/03/30 10:03:05;;;;;;;8.98;0.70;;;16.30;69.10;;;;;;4975168;28;92470;-72
2023/03/30 10:05:35;;;;;;;9.27;0.63;;;16.40;68.10;;;;;;4976881;28;92157;-71
2023/03/30 10:08:19;;;;;;;14.30;0.90;;;16.40;68.30;;;;;;4974102;28;94086;-72
2023/03/30 10:10:52;;;;;;;10.55;1.02;;;16.50;67.20;;;;;;4976230;28;93818;-72
2023/03/30 10:13:23;;;;;;;8.15;0.43;;;16.50;67.20;;;;;;4976428;28;94195;-72
2023/03/30 10:15:52;;;;;;;9.70;1.02;;;16.50;67.40;;;;;;4978079;28;92390;-71
2023/03/30 10:18:33;;;;;;;7.57;1.52;;;16.50;67.70;;;;;;4970920;28;92702;-71
2023/03/30 10:21:10;;;;;;;8.15;0.95;;;16.40;72.30;;;;;;4960360;28;92888;-72
2023/03/30 10:23:42;;;;;;;7.22;0.75;;;16.20;73.80;;;;;;4965763;28;94153;-71
2023/03/30 10:26:17;;;;;;;10.63;0.90;;;16.00;75.50;;;;;;4979462;28;91829;-71
2023/03/30 10:28:56;;;;;;;9.18;0.73;;;15.70;75.20;;;;;;4975135;28;93789;-72
2023/03/30 10:31:24;;;;;;;6.72;0.68;;;15.60;75.80;;;;;;4990278;28;93021;-72
2023/03/30 10:33:55;;;;;;;7.30;0.70;;;15.40;76.70;;;;;;4995144;28;93678;-71
2023/03/30 10:36:23;;;;;;;12.93;1.00;;;15.30;76.40;;;;;;4989435;28;92746;-71
2023/03/30 10:38:49;;;;;;;8.05;0.75;;;15.40;75.80;;;;;;4975930;28;93652;-70
2023/03/30 10:41:21;;;;;;;12.10;1.05;;;15.30;77.20;;;;;;4972277;28;92385;-71
2023/03/30 10:43:48;;;;;;;9.30;0.80;;;15.30;76.90;;;;;;4970719;28;94632;-71
2023/03/30 10:46:17;;;;;;;10.63;1.00;;;15.20;77.40;;;;;;4973589;28;92503;-71
2023/03/30 10:49:09;;;;;;;13.75;1.60;;;15.10;77.40;;;;;;4959607;28;93670;-71
2023/03/30 10:51:39;;;;;;;9.70;1.00;;;15.10;78.00;;;;;;4986927;28;92462;-70
2023/03/30 10:54:28;;;;;;;13.23;1.65;;;14.90;79.90;;;;;;4979582;28;92328;-70
2023/03/30 10:56:59;;;;;;;10.25;0.90;;;14.80;79.90;;;;;;4975237;28;92547;-70
2023/03/30 10:59:47;;;;;;;7.10;0.98;;;14.70;80.20;;;;;;4966851;28;94261;-70
2023/03/30 11:02:23;;;;;;;12.32;0.80;;;14.80;80.60;;;;;;4966799;28;93860;-70
2023/03/30 11:04:54;;;;;;;8.35;0.80;;;14.80;80.10;;;;;;4974433;28;93636;-71
2023/03/30 11:07:37;;;;;;;7.18;0.75;;;14.80;80.30;;;;;;4963332;28;92187;-71
2023/03/30 11:10:30;;;;;;;8.77;1.00;;;14.70;80.80;;;;;;4964199;28;93209;-71
2023/03/30 11:13:16;;;;;;;6.50;0.82;;;14.70;81.30;;;;;;4979307;28;93641;-71
2023/03/30 11:16:01;;;;;;;9.48;1.10;;;14.70;81.80;;;;;;4972307;28;93270;-71
2023/03/30 11:19:07;;;;;;;6.13;0.77;;;14.80;81.60;;;;;;4974000;28;91746;-71
2023/03/30 11:21:41;;;;;;;6.45;1.05;;;14.70;82.40;;;;;;4968463;28;93599;-72
2023/03/30 11:24:21;;;;;;;8.70;1.08;;;14.70;82.30;;;;;;4981100;28;92979;-71
2023/03/30 11:27:11;;;;;;;9.18;1.10;;;14.70;82.80;;;;;;4972989;28;93574;-71
2023/03/30 11:30:08;;;;;;;8.88;1.40;;;14.70;82.40;;;;;;4970697;28;92973;-70
2023/03/30 11:32:42;;;;;;;8.45;1.23;;;14.50;84.40;;;;;;4967705;28;93732;-69
2023/03/30 11:35:14;;;;;;;8.82;1.45;;;14.40;85.30;;;;;;4969431;28;93403;-71
2023/03/30 11:38:00;;;;;;;8.20;1.27;;;14.30;85.30;;;;;;4961769;28;93900;-70
2023/03/30 11:40:32;;;;;;;10.45;1.58;;;14.20;86.30;;;;;;4973595;28;92050;-71
2023/03/30 11:42:57;;;;;;;12.02;1.77;;;14.10;87.60;;;;;;4989653;28;93196;-70
2023/03/30 11:45:52;;;;;;;9.57;1.20;;;14.00;88.70;;;;;;4978623;28;93384;-72
2023/03/30 11:48:41;;;;;;;7.50;1.35;;;13.80;89.10;;;;;;4972233;28;92668;-71
2023/03/30 11:51:22;;;;;;;6.53;1.00;;;13.80;89.20;;;;;;4981499;28;94077;-70
2023/03/30 11:54:19;;;;;;;5.75;1.52;;;13.80;89.30;;;;;;4983687;28;94383;-70
2023/03/30 11:57:13;;;;;;;9.38;1.48;;;13.80;90.40;;;;;;4962804;28;93836;-72
2023/03/30 12:00:16;;;;;;;11.73;1.75;;;13.80;90.70;;;;;;4979870;28;92567;-72
2023/03/30 12:03:14;;;;;;;8.57;1.40;;;13.80;91.50;;;;;;4973855;28;92114;-71
2023/03/30 12:06:14;;;;;;;10.63;1.42;;;13.80;91.60;;;;;;4972384;28;93203;-72
2023/03/30 12:09:04;;;;;;;5.97;0.93;;;13.80;91.70;;;;;;4969539;28;93966;-70
2023/03/30 12:12:22;;;;;;;10.50;0.90;;;13.70;91.60;;;;;;4972162;28;92528;-72
2023/03/30 12:15:00;;;;;;;8.80;1.20;;;13.70;91.70;;;;;;4973638;28;92404;-71
2023/03/30 12:17:41;;;;;;;9.02;1.60;;;13.80;91.20;;;;;;4963436;28;94892;-71
2023/03/30 12:20:25;;;;;;;7.80;1.23;;;13.80;90.90;;;;;;4971206;28;92508;-70
2023/03/30 12:23:03;;;;;;;9.52;0.90;;;13.90;91.00;;;;;;4974895;28;93826;-71
2023/03/30 12:25:48;;;;;;;8.68;1.10;;;14.00;90.90;;;;;;4968467;28;92972;-70
2023/03/30 12:28:18;;;;;;;9.18;1.30;;;14.20;91.00;;;;;;4967702;28;94514;-73
2023/03/30 12:30:59;;;;;;;9.25;1.23;;;14.30;90.70;;;;;;4974136;28;94643;-73
2023/03/30 12:33:42;;;;;;;7.95;1.10;;;14.40;91.20;;;;;;4983296;28;92511;-71
2023/03/30 12:36:29;;;;;;;7.75;1.20;;;14.50;91.20;;;;;;4960338;28;93913;-71
2023/03/30 12:39:01;;;;;;;8.63;1.13;;;14.60;90.90;;;;;;4958247;28;93607;-71
2023/03/30 12:41:28;;;;;;;10.57;1.80;;;14.70;90.60;;;;;;4971872;28;93421;-73
2023/03/30 12:43:59;;;;;;;11.88;1.33;;;14.90;90.70;;;;;;4974738;28;92547;-71
2023/03/30 12:46:34;;;;;;;5.93;1.20;;;15.00;90.30;;;;;;4980546;28;92663;-71
2023/03/30 12:49:25;;;;;;;11.02;1.75;;;15.20;90.30;;;;;;4967096;28;94932;-71
2023/03/30 12:52:14;;;;;;;13.52;1.50;;;15.30;90.20;;;;;;4973263;28;93386;-71
2023/03/30 12:55:12;;;;;;;11.50;1.50;;;15.30;89.00;;;;;;4970089;28;92665;-70
2023/03/30 12:57:44;;;;;;;10.32;1.77;;;15.20;89.50;;;;;;4962891;28;92424;-69
2023/03/30 13:00:29;;;;;;;11.45;1.58;;;15.10;90.10;;;;;;4975650;28;93061;-71
2023/03/30 13:02:57;;;;;;;15.10;1.90;;;15.00;90.60;;;;;;4971123;28;92665;-71
2023/03/30 13:05:30;;;;;;;10.07;1.55;;;14.90;90.90;;;;;;4978280;28;92562;-74
2023/03/30 13:08:05;;;;;;;13.85;1.67;;;14.80;90.60;;;;;;4968707;28;93249;-70
2023/03/30 13:10:31;;;;;;;13.05;1.77;;;14.70;91.10;;;;;;4963095;28;93697;-72
2023/03/30 13:13:00;;;;;;;8.18;1.38;;;14.70;91.50;;;;;;4972578;28;93282;-71